Time;durP1;ratioP1;P1;durP2;ratioP2;P2;SDS_P1;SDS_P2;PMS_P1;PMS_P2;Temp;Humidity;BMP_temperature;BMP_pressure;BME280_temperature;BME280_humidity;BME280_pressure;Samples;Min_cycle;Max_cycle;Signal;HPM_P1;HPM_P2
2023/02/04 05:34:08;;;;;;;29.48;5.00;;;14.00;68.70;;;;;;4941388;23;20480;-76
2023/02/04 05:36:33;;;;;;;22.15;4.40;;;14.20;68.20;;;;;;4846279;29;20141;-76
2023/02/04 05:38:59;;;;;;;23.95;4.63;;;14.20;68.00;;;;;;4846263;29;20058;-73
2023/02/04 05:41:25;;;;;;;24.27;5.03;;;14.30;68.00;;;;;;4845495;29;20483;-78
2023/02/04 05:43:50;;;;;;;24.58;4.68;;;14.40;68.10;;;;;;4837671;29;20061;-77
2023/02/04 05:46:16;;;;;;;22.23;4.85;;;14.40;68.10;;;;;;4846558;29;20432;-76
2023/02/04 05:48:42;;;;;;;21.75;4.15;;;14.50;67.90;;;;;;4846546;29;20046;-75
2023/02/04 05:51:08;;;;;;;26.52;5.07;;;14.60;67.70;;;;;;4846413;29;20081;-73
2023/02/04 05:53:33;;;;;;;20.48;4.53;;;14.70;67.60;;;;;;4846775;29;20057;-74
2023/02/04 05:55:59;;;;;;;19.25;3.65;;;14.80;67.60;;;;;;4846153;29;20517;-74
2023/02/04 05:58:31;;;;;;;19.27;3.67;;;14.90;67.60;;;;;;4846850;29;20061;-73
2023/02/04 06:01:01;;;;;;;20.00;4.45;;;15.00;67.50;;;;;;4845077;29;20072;-76
2023/02/04 06:03:27;;;;;;;23.58;5.05;;;15.10;67.30;;;;;;4846457;29;20115;-74
2023/02/04 06:05:53;;;;;;;22.65;4.95;;;15.10;67.10;;;;;;4845966;29;20073;-76
2023/02/04 06:08:19;;;;;;;13.05;3.38;;;15.20;67.10;;;;;;4845981;29;20045;-75
2023/02/04 06:10:44;;;;;;;18.38;3.72;;;15.20;67.00;;;;;;4846790;29;20369;-75
2023/02/04 06:13:10;;;;;;;22.48;4.65;;;15.30;67.00;;;;;;4846307;29;20536;-77
2023/02/04 06:15:36;;;;;;;14.35;3.22;;;15.30;67.00;;;;;;4846348;29;20082;-75
2023/02/04 06:18:02;;;;;;;18.27;4.00;;;15.30;67.00;;;;;;4846325;29;20128;-75
2023/02/04 06:20:28;;;;;;;14.32;3.67;;;15.40;66.90;;;;;;4845698;29;20376;-74
2023/02/04 06:22:53;;;;;;;21.60;3.85;;;15.40;66.90;;;;;;4846020;29;20042;-76
2023/02/04 06:25:20;;;;;;;19.67;3.88;;;15.40;66.80;;;;;;4845750;29;20514;-76
2023/02/04 06:27:46;;;;;;;17.92;3.95;;;15.50;66.80;;;;;;4845420;29;20057;-75
2023/02/04 06:30:12;;;;;;;14.07;3.40;;;15.60;66.70;;;;;;4845601;29;20050;-78
2023/02/04 06:32:38;;;;;;;16.60;3.95;;;15.60;66.70;;;;;;4830725;29;20046;-78
2023/02/04 06:35:04;;;;;;;17.48;4.05;;;15.70;66.60;;;;;;4856473;29;20076;-77
2023/02/04 06:37:30;;;;;;;18.70;3.63;;;15.70;66.20;;;;;;4863627;29;20125;-78
2023/02/04 06:39:56;;;;;;;16.85;4.50;;;15.70;65.50;;;;;;4844425;29;20053;-78
2023/02/04 06:42:24;;;;;;;14.25;3.40;;;15.80;64.20;;;;;;4846038;29;20078;-79
2023/02/04 06:44:50;;;;;;;21.83;4.72;;;15.70;63.10;;;;;;4846038;29;20446;-79
2023/02/04 06:47:16;;;;;;;17.15;4.00;;;15.70;63.00;;;;;;4856995;29;20045;-79
2023/02/04 06:49:44;;;;;;;19.10;4.38;;;15.80;63.40;;;;;;4846037;29;20049;-79
2023/02/04 06:52:10;;;;;;;17.20;3.70;;;15.80;63.50;;;;;;4841113;29;20049;-76
2023/02/04 06:58:30;;;;;;;24.60;4.55;;;15.80;62.60;;;;;;4750600;30;20117;-79
2023/02/04 07:04:08;;;;;;;26.58;4.25;;;15.90;63.00;;;;;;4685981;30;20054;-79
2023/02/04 07:06:39;;;;;;;12.25;3.97;;;16.00;62.50;;;;;;4738574;30;20110;-79
2023/02/04 07:09:05;;;;;;;15.13;3.88;;;16.10;62.30;;;;;;4777431;29;20060;-80
2023/02/04 07:11:41;;;;;;;22.85;4.07;;;16.10;62.10;;;;;;4847188;29;20464;-80
2023/02/04 07:14:15;;;;;;;15.05;3.58;;;16.20;61.80;;;;;;4831234;29;20472;-80
2023/02/04 07:16:57;;;;;;;22.33;4.90;;;16.10;60.40;;;;;;4829301;29;20041;-79
2023/02/04 07:19:38;;;;;;;16.40;4.15;;;16.10;60.20;;;;;;4829001;29;20454;-79
2023/02/04 07:22:18;;;;;;;17.83;3.70;;;16.10;60.50;;;;;;4835304;29;20475;-79
2023/02/04 07:24:44;;;;;;;18.23;3.45;;;16.10;60.80;;;;;;4822722;29;20045;-80
2023/02/04 08:58:31;;;;;;;13.82;3.00;;;15.00;63.70;;;;;;5747717;23;20973;-76
2023/02/04 09:01:06;;;;;;;10.18;2.67;;;15.00;62.40;;;;;;4847018;29;20054;-76
2023/02/04 09:03:31;;;;;;;13.80;3.40;;;14.90;61.20;;;;;;4848126;29;20128;-76
2023/02/04 09:05:57;;;;;;;11.43;3.50;;;14.90;61.00;;;;;;4832864;29;20527;-78
2023/02/04 09:08:23;;;;;;;10.13;3.15;;;14.90;60.00;;;;;;4853499;29;20141;-79
2023/02/04 09:10:48;;;;;;;11.35;3.55;;;14.90;59.60;;;;;;4847269;29;20129;-77
2023/02/04 09:13:14;;;;;;;12.23;3.25;;;14.80;59.40;;;;;;4848072;29;20049;-75
2023/02/04 09:15:41;;;;;;;13.05;3.33;;;14.80;59.60;;;;;;4857100;29;20068;-76
2023/02/04 09:18:17;;;;;;;17.08;4.05;;;14.80;60.20;;;;;;4846595;29;20610;-78
2023/02/04 09:20:44;;;;;;;11.60;2.67;;;14.70;59.90;;;;;;4846730;29;20090;-77
2023/02/04 09:23:11;;;;;;;9.55;3.63;;;14.70;59.90;;;;;;4846914;29;20452;-78
2023/02/04 09:25:39;;;;;;;7.70;2.55;;;14.70;60.00;;;;;;4846986;29;20050;-77
2023/02/04 09:28:10;;;;;;;9.98;3.08;;;14.70;60.20;;;;;;4846743;29;20050;-78
2023/02/04 09:30:36;;;;;;;8.93;2.78;;;14.70;60.50;;;;;;4828679;29;20519;-77
2023/02/04 09:33:02;;;;;;;9.23;2.63;;;14.70;60.60;;;;;;4830908;29;20049;-77
2023/02/04 09:35:28;;;;;;;9.63;2.88;;;14.70;60.80;;;;;;4846800;29;20053;-76
2023/02/04 09:37:53;;;;;;;8.32;2.20;;;14.70;60.90;;;;;;4846842;29;20042;-76
2023/02/04 09:40:19;;;;;;;11.70;3.08;;;14.70;61.00;;;;;;4846486;29;20045;-78
2023/02/04 09:42:49;;;;;;;10.27;2.90;;;14.70;61.10;;;;;;4846498;29;20445;-77
2023/02/04 09:45:22;;;;;;;9.20;2.55;;;14.70;61.20;;;;;;4828478;29;20053;-79
2023/02/04 09:47:49;;;;;;;5.72;2.65;;;14.70;61.30;;;;;;4848640;29;20062;-76
2023/02/04 09:50:17;;;;;;;8.52;2.75;;;14.70;61.40;;;;;;4846700;29;20049;-78
2023/02/04 09:52:45;;;;;;;9.07;2.47;;;14.70;61.50;;;;;;4846451;29;20472;-77
2023/02/04 09:55:15;;;;;;;11.98;2.92;;;14.70;61.60;;;;;;4846410;29;20470;-77
2023/02/04 09:57:41;;;;;;;6.55;2.20;;;14.70;61.60;;;;;;4846913;29;20102;-77
2023/02/04 10:00:18;;;;;;;9.93;2.30;;;14.70;61.70;;;;;;4830156;29;20065;-78
2023/02/04 10:02:44;;;;;;;10.27;3.22;;;14.60;61.80;;;;;;4846793;29;20065;-77
2023/02/04 10:05:15;;;;;;;7.63;2.00;;;14.70;61.90;;;;;;4845829;29;20046;-78
2023/02/04 10:07:41;;;;;;;5.50;2.20;;;14.60;61.90;;;;;;4846442;29;20064;-78
2023/02/04 10:10:20;;;;;;;12.68;2.75;;;14.60;62.00;;;;;;4845718;29;20089;-76
2023/02/04 10:12:51;;;;;;;8.20;2.95;;;14.60;62.00;;;;;;4845574;29;20050;-77
2023/02/04 10:15:18;;;;;;;7.43;2.25;;;14.60;62.10;;;;;;4846468;29;20346;-77
2023/02/04 10:17:49;;;;;;;5.78;2.00;;;14.60;62.20;;;;;;4847100;29;20065;-78
2023/02/04 10:20:17;;;;;;;6.35;2.05;;;14.60;62.30;;;;;;4846497;29;20049;-77
2023/02/04 10:22:44;;;;;;;8.35;2.60;;;14.60;62.30;;;;;;4855138;29;20054;-78
2023/02/04 10:25:18;;;;;;;12.40;3.33;;;14.60;62.30;;;;;;4864158;29;20049;-77
2023/02/04 10:27:58;;;;;;;14.77;3.58;;;14.60;59.50;;;;;;4865648;29;20061;-78
2023/02/04 10:30:37;;;;;;;11.60;2.83;;;14.40;57.70;;;;;;4838748;29;20449;-77
2023/02/04 10:33:25;;;;;;;14.05;3.67;;;14.10;58.90;;;;;;4846612;29;20054;-74
2023/02/04 10:35:54;;;;;;;17.38;3.25;;;14.00;60.60;;;;;;4846456;29;20050;-75
2023/02/04 10:38:21;;;;;;;23.75;3.75;;;14.00;61.60;;;;;;4846584;29;20050;-75
2023/02/04 10:40:47;;;;;;;22.25;3.90;;;14.10;61.90;;;;;;4846325;29;20050;-76
2023/02/04 10:43:20;;;;;;;19.90;3.67;;;14.20;62.40;;;;;;4846040;29;20065;-76
2023/02/04 10:45:55;;;;;;;18.42;4.05;;;14.40;62.70;;;;;;4846154;29;20041;-75
2023/02/04 10:48:21;;;;;;;18.50;3.20;;;14.50;63.10;;;;;;4837778;29;20053;-76
2023/02/04 10:50:48;;;;;;;21.88;3.50;;;14.60;63.00;;;;;;4830149;29;20085;-77
2023/02/04 10:56:14;;;;;;;15.48;2.90;;;14.80;63.40;;;;;;4846092;29;20145;-75
2023/02/04 10:58:40;;;;;;;21.30;3.60;;;15.00;63.10;;;;;;4846269;29;20050;-78
2023/02/04 11:01:13;;;;;;;19.08;3.75;;;15.00;63.20;;;;;;4844686;29;20049;-74
2023/02/04 11:03:39;;;;;;;19.92;3.95;;;15.00;63.60;;;;;;4845518;29;20061;-74
2023/02/04 11:06:21;;;;;;;19.00;2.80;;;15.10;63.80;;;;;;4845862;29;20190;-74
2023/02/04 11:08:47;;;;;;;25.80;3.38;;;15.10;64.30;;;;;;4846470;29;20406;-76
2023/02/04 11:11:17;;;;;;;20.88;3.20;;;15.10;64.30;;;;;;4845652;29;20050;-75
2023/02/04 11:13:49;;;;;;;19.90;3.75;;;15.20;64.70;;;;;;4846406;29;20126;-74
2023/02/04 11:16:17;;;;;;;17.15;3.30;;;15.20;64.90;;;;;;4858907;29;20053;-74
2023/02/04 11:18:55;;;;;;;17.17;4.20;;;15.20;65.10;;;;;;4857870;29;20056;-78
2023/02/04 11:21:31;;;;;;;17.08;3.17;;;15.20;65.10;;;;;;4850593;29;20046;-76
2023/02/04 11:24:15;;;;;;;26.05;3.58;;;15.30;65.30;;;;;;4845269;29;20133;-73
2023/02/04 11:26:48;;;;;;;20.15;3.42;;;15.40;65.50;;;;;;4844872;29;20060;-77
2023/02/04 11:29:14;;;;;;;16.00;3.03;;;15.40;65.30;;;;;;4844884;29;20076;-78
2023/02/04 11:31:49;;;;;;;19.50;2.92;;;15.50;65.20;;;;;;4845688;29;20450;-75
2023/02/04 11:34:14;;;;;;;14.88;3.30;;;15.60;64.00;;;;;;4852548;29;20053;-76
2023/02/04 11:37:16;;;;;;;18.15;2.47;;;15.60;63.00;;;;;;4863727;29;20528;-76
2023/02/04 11:39:49;;;;;;;11.60;2.88;;;15.60;61.50;;;;;;4847325;29;20085;-74
2023/02/04 11:42:38;;;;;;;15.45;2.95;;;15.60;60.30;;;;;;4845304;29;20114;-77
2023/02/04 11:45:22;;;;;;;15.52;2.67;;;15.60;58.50;;;;;;4829144;29;20061;-76
2023/02/04 11:47:50;;;;;;;14.27;3.35;;;15.60;58.20;;;;;;4845021;29;20034;-79
2023/02/04 11:50:24;;;;;;;11.90;2.88;;;15.70;58.20;;;;;;4844562;29;20041;-76
2023/02/04 11:52:53;;;;;;;11.80;2.63;;;15.80;58.30;;;;;;4842338;29;20428;-76
2023/02/04 11:55:18;;;;;;;10.30;2.75;;;15.80;58.10;;;;;;4844396;29;20082;-76
2023/02/04 11:57:45;;;;;;;15.32;2.55;;;15.80;58.10;;;;;;4844473;29;20104;-74
2023/02/04 12:00:25;;;;;;;13.48;2.17;;;15.80;58.30;;;;;;4844238;29;20061;-77
2023/02/04 12:02:59;;;;;;;12.43;2.97;;;15.80;58.30;;;;;;4825966;29;20065;-77
2023/02/04 12:05:42;;;;;;;7.43;1.92;;;15.80;58.70;;;;;;4828296;29;20054;-76
2023/02/04 12:08:23;;;;;;;8.90;1.75;;;15.80;58.50;;;;;;4845552;29;20042;-76
2023/02/04 12:11:06;;;;;;;8.70;2.78;;;15.80;58.30;;;;;;4842016;29;20037;-77
2023/02/04 12:13:33;;;;;;;14.63;2.55;;;15.70;58.10;;;;;;4826007;29;20373;-76
2023/02/04 12:15:58;;;;;;;9.50;2.20;;;15.70;58.10;;;;;;4844265;29;20045;-77
2023/02/04 12:18:27;;;;;;;12.35;2.95;;;15.70;57.90;;;;;;4844118;29;20128;-77
2023/02/04 12:20:55;;;;;;;10.60;2.55;;;15.70;57.80;;;;;;4828258;29;20453;-79
2023/02/04 12:23:21;;;;;;;9.02;1.98;;;15.60;57.50;;;;;;4843762;29;20046;-74
2023/02/04 12:25:48;;;;;;;6.20;2.17;;;15.60;57.30;;;;;;4843968;29;20122;-75
2023/02/04 12:28:13;;;;;;;8.45;2.65;;;15.60;57.10;;;;;;4844134;29;20038;-77
2023/02/04 12:30:39;;;;;;;7.88;2.42;;;15.60;56.90;;;;;;4844247;29;20121;-77
2023/02/04 12:33:06;;;;;;;8.40;2.58;;;15.60;56.90;;;;;;4845658;29;20132;-74
2023/02/04 12:35:32;;;;;;;11.45;2.42;;;15.60;56.90;;;;;;4862378;29;20366;-75
2023/02/04 12:37:58;;;;;;;7.47;1.50;;;15.50;56.70;;;;;;4862698;29;20369;-75
2023/02/04 12:40:24;;;;;;;11.68;2.67;;;15.50;56.70;;;;;;4863012;29;20118;-74
2023/02/04 12:42:51;;;;;;;12.85;2.42;;;15.50;56.80;;;;;;4830028;29;20050;-78
2023/02/04 12:45:17;;;;;;;11.23;2.28;;;15.50;56.90;;;;;;4845035;29;20058;-77
2023/02/04 12:47:43;;;;;;;9.95;2.00;;;15.40;56.60;;;;;;4844667;29;20057;-78
2023/02/04 12:50:11;;;;;;;8.40;2.05;;;15.40;56.70;;;;;;4843649;29;20349;-77
2023/02/04 12:52:38;;;;;;;9.30;2.38;;;15.30;56.80;;;;;;4843782;29;20054;-76
2023/02/04 12:55:05;;;;;;;9.63;2.17;;;15.30;57.00;;;;;;4844510;29;20046;-73
2023/02/04 12:57:32;;;;;;;9.45;2.15;;;15.20;57.10;;;;;;4812817;29;20078;-77
2023/02/04 13:00:00;;;;;;;13.13;2.30;;;15.20;57.30;;;;;;4843685;29;20058;-76
2023/02/04 13:02:27;;;;;;;9.20;1.98;;;15.20;57.60;;;;;;4843257;29;20144;-76
2023/02/04 13:04:53;;;;;;;10.38;2.15;;;15.20;57.80;;;;;;4844500;29;20376;-77
2023/02/04 13:07:19;;;;;;;7.63;2.35;;;15.20;58.00;;;;;;4843994;29;20050;-77
2023/02/04 13:09:45;;;;;;;6.75;1.88;;;15.10;58.00;;;;;;4843566;29;20396;-77
2023/02/04 13:12:14;;;;;;;7.38;1.58;;;15.10;58.20;;;;;;4843527;29;20117;-76
2023/02/04 13:14:41;;;;;;;9.27;1.67;;;15.10;58.30;;;;;;4846635;29;20050;-77
2023/02/04 13:17:07;;;;;;;7.43;1.35;;;15.10;58.40;;;;;;4843859;29;20053;-78
2023/02/04 13:19:33;;;;;;;8.55;1.80;;;15.00;58.50;;;;;;4844110;29;20086;-79
2023/02/04 13:21:59;;;;;;;7.85;1.70;;;15.00;59.30;;;;;;4828116;29;20379;-77
2023/02/04 13:24:25;;;;;;;12.93;2.17;;;15.00;58.80;;;;;;4844038;29;20038;-77
2023/02/04 13:26:50;;;;;;;10.75;2.20;;;15.00;58.40;;;;;;4812690;29;20437;-75
2023/02/04 13:29:16;;;;;;;13.63;2.58;;;15.00;58.30;;;;;;4843436;29;20060;-75
2023/02/04 13:31:42;;;;;;;13.57;2.10;;;15.00;58.30;;;;;;4843845;29;20046;-76
2023/02/04 13:34:08;;;;;;;9.93;2.30;;;15.00;58.50;;;;;;4849362;29;20053;-77
2023/02/04 13:36:34;;;;;;;11.20;2.20;;;15.00;58.50;;;;;;4860193;29;20113;-76
2023/02/04 13:39:00;;;;;;;8.95;1.80;;;14.90;58.60;;;;;;4843714;29;20078;-77
2023/02/04 13:41:27;;;;;;;14.32;2.70;;;14.90;58.70;;;;;;4844081;29;20388;-76
2023/02/04 13:43:53;;;;;;;6.80;2.33;;;14.90;59.50;;;;;;4827876;29;20406;-78
2023/02/04 13:46:19;;;;;;;5.55;2.00;;;14.90;59.00;;;;;;4846847;29;20129;-76
2023/02/04 13:48:45;;;;;;;12.65;2.17;;;14.90;59.10;;;;;;4847594;29;20046;-78
2023/02/04 13:51:10;;;;;;;13.02;1.95;;;14.80;59.20;;;;;;4847026;29;20433;-76
2023/02/04 13:53:36;;;;;;;8.77;1.70;;;14.80;59.30;;;;;;4847747;29;20053;-75
2023/02/04 13:56:02;;;;;;;28.58;5.45;;;14.80;59.40;;;;;;4847301;29;20452;-74
2023/02/04 13:58:28;;;;;;;21.30;3.42;;;14.80;59.40;;;;;;4849255;29;20134;-76
2023/02/04 14:00:56;;;;;;;18.10;3.58;;;14.80;59.50;;;;;;4865034;29;20068;-77
2023/02/04 14:03:29;;;;;;;14.57;2.30;;;14.80;59.40;;;;;;4846497;29;20068;-77
2023/02/04 14:05:55;;;;;;;12.97;2.67;;;14.90;59.60;;;;;;4847374;29;20085;-77
2023/02/04 14:08:21;;;;;;;14.23;3.13;;;15.00;59.70;;;;;;4846290;29;20053;-77
2023/02/04 14:10:47;;;;;;;8.77;2.13;;;15.00;59.70;;;;;;4847554;29;20053;-77
2023/02/04 14:13:13;;;;;;;16.27;2.60;;;15.20;58.90;;;;;;4830846;29;20358;-76
2023/02/04 14:15:41;;;;;;;11.77;1.95;;;15.20;58.80;;;;;;4847137;29;20050;-75
2023/02/04 14:18:08;;;;;;;15.18;3.35;;;15.20;58.70;;;;;;4846322;29;20046;-74
2023/02/04 14:20:35;;;;;;;13.68;2.22;;;15.30;58.40;;;;;;4849049;29;20054;-72
2023/02/04 14:23:01;;;;;;;14.13;2.30;;;15.40;58.90;;;;;;4862884;29;20128;-77
2023/02/04 14:25:27;;;;;;;18.27;2.75;;;15.40;58.80;;;;;;4865022;29;20182;-78
2023/02/04 14:27:55;;;;;;;16.10;2.55;;;15.40;59.40;;;;;;4851285;29;20085;-80
2023/02/04 14:30:26;;;;;;;22.83;3.40;;;15.40;59.60;;;;;;4814650;29;20049;-78
2023/02/04 14:32:52;;;;;;;22.70;2.75;;;15.50;60.30;;;;;;4815506;29;20046;-75
2023/02/04 14:35:18;;;;;;;27.67;4.30;;;15.50;60.70;;;;;;4846651;29;20037;-77
2023/02/04 14:37:44;;;;;;;24.02;3.45;;;15.50;60.90;;;;;;4829741;29;20378;-78
2023/02/04 14:40:12;;;;;;;24.70;4.25;;;15.50;61.00;;;;;;4845169;29;20042;-78
2023/02/04 14:42:41;;;;;;;31.15;4.43;;;15.50;61.20;;;;;;4845732;29;20137;-78
2023/02/04 14:45:09;;;;;;;25.05;3.60;;;15.60;61.20;;;;;;4843836;29;20365;-77
2023/02/04 14:47:36;;;;;;;29.88;5.05;;;15.60;61.20;;;;;;4847716;29;20345;-79
2023/02/04 14:50:04;;;;;;;24.23;3.72;;;15.70;61.20;;;;;;4846329;29;20053;-79
2023/02/04 14:52:29;;;;;;;26.40;3.88;;;15.80;60.80;;;;;;4845886;29;20073;-77
2023/02/04 14:54:55;;;;;;;22.00;2.90;;;15.90;61.20;;;;;;4829695;29;20081;-78
2023/02/04 14:57:21;;;;;;;25.48;3.47;;;15.90;61.10;;;;;;4845847;29;20180;-73
2023/02/04 14:59:47;;;;;;;23.98;3.83;;;16.00;61.10;;;;;;4846856;29;20501;-78
2023/02/04 15:02:14;;;;;;;25.95;4.10;;;16.00;61.00;;;;;;4846423;29;20073;-76
2023/02/04 15:04:43;;;;;;;20.30;2.78;;;16.10;61.00;;;;;;4847400;29;20064;-78
2023/02/04 15:07:10;;;;;;;26.42;4.45;;;16.20;61.00;;;;;;4831190;29;20045;-76
2023/02/04 15:09:36;;;;;;;31.77;3.78;;;16.20;60.90;;;;;;4847885;29;20096;-78
2023/02/04 15:12:03;;;;;;;30.30;4.78;;;16.20;61.00;;;;;;4847496;29;20323;-78
2023/02/04 15:14:29;;;;;;;21.48;4.30;;;16.30;61.00;;;;;;4846378;29;20045;-77
2023/02/04 15:16:55;;;;;;;22.02;3.78;;;16.30;61.10;;;;;;4845833;29;20125;-79
2023/02/04 15:19:22;;;;;;;24.77;3.83;;;16.30;61.20;;;;;;4845938;29;20081;-77
2023/02/04 15:21:48;;;;;;;25.52;4.22;;;16.30;61.30;;;;;;4829658;29;20054;-79
2023/02/04 15:24:14;;;;;;;31.48;4.45;;;16.20;61.40;;;;;;4845400;29;20050;-78
2023/02/04 15:26:40;;;;;;;34.78;4.13;;;16.30;61.50;;;;;;4827438;29;20109;-78
2023/02/04 15:29:06;;;;;;;31.63;4.15;;;16.20;61.50;;;;;;4845191;29;20061;-75
2023/02/04 15:31:32;;;;;;;24.25;3.72;;;16.20;61.00;;;;;;4856372;29;20049;-78
2023/02/04 15:33:58;;;;;;;35.42;4.90;;;16.20;60.10;;;;;;4863806;29;20362;-77
2023/02/04 15:36:24;;;;;;;18.90;3.75;;;16.20;59.80;;;;;;4852391;29;20102;-76
2023/02/04 15:38:50;;;;;;;23.02;3.47;;;16.20;60.30;;;;;;4844436;29;20165;-77
2023/02/04 15:41:15;;;;;;;16.88;3.25;;;16.20;60.50;;;;;;4844504;29;20057;-76
2023/02/04 15:43:49;;;;;;;20.50;3.88;;;16.20;60.70;;;;;;4844899;29;20062;-77
2023/02/04 15:46:16;;;;;;;24.65;3.78;;;16.30;60.90;;;;;;4842324;29;20049;-79
2023/02/04 15:48:42;;;;;;;16.45;3.03;;;16.20;60.50;;;;;;4844282;29;20046;-79
2023/02/04 15:51:08;;;;;;;16.83;3.40;;;16.20;60.50;;;;;;4843942;29;20056;-80
2023/02/04 15:53:34;;;;;;;16.40;2.78;;;16.30;60.50;;;;;;4844886;29;20141;-78
2023/02/04 15:56:00;;;;;;;16.33;2.78;;;16.30;60.80;;;;;;4829301;29;20361;-75
2023/02/04 15:58:25;;;;;;;19.90;2.78;;;16.30;61.00;;;;;;4844861;29;20046;-78
2023/02/04 16:00:51;;;;;;;17.52;3.00;;;16.30;61.20;;;;;;4828667;29;20057;-75
2023/02/04 16:03:17;;;;;;;14.45;2.38;;;16.30;61.30;;;;;;4844640;29;20426;-74
2023/02/04 16:05:43;;;;;;;17.35;2.90;;;16.30;61.40;;;;;;4844874;29;20381;-76
2023/02/04 16:08:08;;;;;;;20.48;3.13;;;16.30;61.50;;;;;;4844330;29;20050;-75
2023/02/04 16:10:34;;;;;;;17.35;3.42;;;16.30;61.60;;;;;;4844418;29;20058;-78
2023/02/04 16:13:00;;;;;;;20.48;2.95;;;16.30;61.90;;;;;;4852590;29;20133;-78
2023/02/04 16:15:28;;;;;;;14.00;3.00;;;16.20;62.10;;;;;;4846864;29;20518;-77
2023/02/04 16:17:55;;;;;;;14.90;2.65;;;16.20;62.30;;;;;;4844514;29;20064;-77
2023/02/04 16:20:21;;;;;;;17.00;2.78;;;16.30;62.60;;;;;;4844209;29;20060;-76
2023/02/04 16:22:47;;;;;;;17.38;2.33;;;16.20;62.80;;;;;;4844145;29;20366;-77
2023/02/04 16:25:13;;;;;;;21.02;3.50;;;16.20;62.90;;;;;;4844552;29;20050;-77
2023/02/04 16:27:39;;;;;;;10.50;2.35;;;16.20;63.10;;;;;;4844663;29;20054;-77
2023/02/04 16:30:05;;;;;;;15.63;2.92;;;16.20;63.40;;;;;;4844467;29;20054;-76
2023/02/04 16:32:35;;;;;;;17.83;2.95;;;16.30;63.70;;;;;;4844782;29;20085;-77
2023/02/04 16:35:03;;;;;;;13.95;2.65;;;16.20;63.80;;;;;;4844273;29;20045;-76
2023/02/04 16:37:29;;;;;;;14.88;2.75;;;16.20;63.90;;;;;;4844487;29;20096;-75
2023/02/04 16:39:55;;;;;;;17.27;2.60;;;16.20;64.10;;;;;;4844363;29;20476;-77
2023/02/04 16:42:21;;;;;;;16.50;2.38;;;16.20;64.10;;;;;;4844301;29;20045;-78
2023/02/04 16:44:47;;;;;;;18.15;3.00;;;16.20;64.30;;;;;;4828654;29;20060;-77
2023/02/04 16:47:12;;;;;;;19.10;2.42;;;16.20;64.40;;;;;;4844360;29;20094;-76
2023/02/04 16:49:38;;;;;;;17.48;4.10;;;16.20;64.50;;;;;;4844429;29;20080;-78
2023/02/04 16:52:04;;;;;;;21.92;3.22;;;16.20;64.40;;;;;;4843385;29;20057;-79
2023/02/04 16:54:30;;;;;;;26.98;4.30;;;16.20;64.50;;;;;;4828151;29;20053;-76
2023/02/04 16:56:59;;;;;;;24.48;4.20;;;16.20;64.50;;;;;;4828370;29;20093;-78
2023/02/04 16:59:26;;;;;;;31.67;4.90;;;16.10;64.60;;;;;;4847880;29;20137;-77
2023/02/04 17:01:51;;;;;;;35.58;4.70;;;16.10;64.70;;;;;;4843515;29;20049;-77
2023/02/04 17:04:18;;;;;;;37.80;4.70;;;16.10;65.00;;;;;;4843885;29;20053;-78
2023/02/04 17:06:44;;;;;;;24.95;4.60;;;16.10;65.20;;;;;;4844321;29;20137;-77
2023/02/04 17:09:09;;;;;;;39.03;4.18;;;16.00;65.20;;;;;;4843937;29;20167;-76
2023/02/04 17:11:35;;;;;;;34.85;5.45;;;16.00;65.10;;;;;;4844188;29;20060;-74
